Decoded Metar for SCTE (PUERTO MONTT in CHILE) (IATA:PMC) | Meteo·Mobile Aviation Weather
aviador You're here:

SCTE Decoded Metar

PUERTO MONTT in CHILE
Report Time2019-02-16 07:00:00
UTC Time2019-02-16 07:33:34
Flight Rules vfr VFR
Wind180° at 02 kt
W.Decomp.*RWY 17: 2.0 kt HW -0 kt LCW
W.Rank180° ranks 8
Current wind is below 180° avg. (6.3)
Visibility9999 m
Phenomena:N/A
Clouds:N/A
Expected CloudBase > 400 ft AGL from Temp-Dew spread
CeilingNone
Temp12°C (ISA -2)
Dew Point11°C (94% RH)
AAT11.6°C
QNH1013 hPa
Density Alt167 ft
Elevation282 ft
Report Wrong Elevation
Raw Report
METAR SCTE 160700Z 18002KT CAVOK 12/11 Q1013 NOSIG=

Extra information for SCTE:More info

Metar Taf Metar & Taf Last 4 Metars F.Rules Stats Wind Profile Meteogram Temp Stats Airport Information Weather charts Add Link Nearby VenuesMetar ALERT Operation Metar Decoded Social comments